Time;durP1;ratioP1;P1;durP2;ratioP2;P2;SDS_P1;SDS_P2;PMS_P1;PMS_P2;Temp;Humidity;BMP_temperature;BMP_pressure;BME280_temperature;BME280_humidity;BME280_pressure;Samples;Min_cycle;Max_cycle;Signal;HPM_P1;HPM_P2
2021/09/28 00:01:55;;;;;;;9.57;3.43;;;;;;;;;;5034122;28;20473;-56
2021/09/28 00:04:25;;;;;;;7.70;3.30;;;;;;;;;;5034212;28;20439;-62
2021/09/28 00:06:53;;;;;;;9.93;3.10;;;;;;;;;;5034440;28;20458;-59
2021/09/28 00:09:20;;;;;;;6.83;3.20;;;;;;;;;;5034241;28;20449;-59
2021/09/28 00:11:54;;;;;;;10.23;3.33;;;;;;;;;;5034313;28;20423;-58
2021/09/28 00:14:22;;;;;;;7.00;3.13;;;;;;;;;;5033871;28;20490;-57
2021/09/28 00:16:50;;;;;;;16.10;3.13;;;;;;;;;;5034009;28;20466;-53
2021/09/28 00:19:17;;;;;;;10.20;3.80;;;;;;;;;;5033876;28;20477;-59
2021/09/28 00:21:45;;;;;;;6.77;3.10;;;;;;;;;;5034515;28;20486;-57
2021/09/28 00:24:14;;;;;;;11.63;3.30;;;;;;;;;;5033802;28;20461;-62
2021/09/28 00:26:41;;;;;;;10.03;3.27;;;;;;;;;;5037208;28;20443;-60
2021/09/28 00:29:09;;;;;;;10.10;3.50;;;;;;;;;;5037730;28;20451;-59
2021/09/28 00:31:39;;;;;;;11.97;3.80;;;;;;;;;;5037521;28;20462;-63
2021/09/28 00:34:08;;;;;;;6.07;2.60;;;;;;;;;;5037484;28;20462;-60
2021/09/28 00:36:35;;;;;;;5.20;2.47;;;;;;;;;;5037372;28;20534;-62
2021/09/28 00:39:13;;;;;;;8.43;3.30;;;;;;;;;;5036777;28;20431;-61
2021/09/28 00:41:40;;;;;;;5.53;2.40;;;;;;;;;;5036595;28;20450;-61
2021/09/28 00:44:08;;;;;;;7.20;2.83;;;;;;;;;;5037366;28;20712;-61
2021/09/28 00:46:35;;;;;;;8.03;2.63;;;;;;;;;;5036229;28;20459;-60
2021/09/28 00:49:03;;;;;;;9.03;3.33;;;;;;;;;;5025820;28;20486;-61
2021/09/28 00:51:34;;;;;;;11.60;2.93;;;;;;;;;;5037050;28;20524;-61
2021/09/28 00:54:03;;;;;;;5.90;2.97;;;;;;;;;;5036022;28;20458;-61
2021/09/28 00:56:55;;;;;;;8.33;3.07;;;;;;;;;;5036888;28;20822;-60
2021/09/28 00:59:22;;;;;;;9.07;3.07;;;;;;;;;;5037525;28;20462;-58
2021/09/28 01:01:50;;;;;;;7.90;2.90;;;;;;;;;;5037447;28;20531;-62
2021/09/28 01:04:17;;;;;;;6.47;2.93;;;;;;;;;;5036601;28;20458;-57
2021/09/28 01:06:47;;;;;;;5.13;3.40;;;;;;;;;;5037150;28;20499;-59
2021/09/28 01:09:29;;;;;;;12.07;3.80;;;;;;;;;;5036943;28;20427;-59
2021/09/28 01:11:56;;;;;;;5.73;2.80;;;;;;;;;;5037006;28;20458;-52
2021/09/28 01:14:24;;;;;;;8.17;3.60;;;;;;;;;;5036839;28;20514;-51
2021/09/28 01:16:51;;;;;;;10.13;3.90;;;;;;;;;;5037290;28;20529;-60
2021/09/28 01:19:19;;;;;;;11.27;3.87;;;;;;;;;;5037018;28;20475;-57
2021/09/28 01:21:48;;;;;;;10.10;4.27;;;;;;;;;;5036938;28;20490;-58
2021/09/28 01:24:16;;;;;;;11.50;4.67;;;;;;;;;;5037698;28;20415;-61
2021/09/28 01:26:43;;;;;;;11.93;4.00;;;;;;;;;;5036454;28;20447;-63
2021/09/28 01:29:10;;;;;;;16.00;3.87;;;;;;;;;;5037184;28;20502;-59
2021/09/28 01:31:49;;;;;;;8.77;4.60;;;;;;;;;;5036542;28;20451;-61
2021/09/28 01:34:19;;;;;;;9.10;3.27;;;;;;;;;;5036069;28;20465;-58
2021/09/28 01:36:48;;;;;;;9.13;3.73;;;;;;;;;;5035845;28;20497;-57
2021/09/28 01:39:22;;;;;;;8.80;3.63;;;;;;;;;;5036379;28;20446;-62
2021/09/28 01:41:52;;;;;;;7.27;3.07;;;;;;;;;;5036925;28;20455;-62
2021/09/28 01:44:20;;;;;;;13.40;4.73;;;;;;;;;;5036197;28;20459;-56
2021/09/28 01:46:48;;;;;;;8.50;3.10;;;;;;;;;;5033238;28;20478;-62
2021/09/28 01:49:16;;;;;;;6.07;3.13;;;;;;;;;;5036151;28;20474;-58
2021/09/28 01:52:04;;;;;;;10.40;3.30;;;;;;;;;;5036110;28;20493;-59
2021/09/28 01:54:32;;;;;;;9.33;4.03;;;;;;;;;;5036662;28;20485;-59
2021/09/28 01:57:00;;;;;;;8.30;3.20;;;;;;;;;;5036248;28;20458;-58
2021/09/28 01:59:52;;;;;;;8.30;2.90;;;;;;;;;;5036888;28;20447;-61
2021/09/28 02:02:20;;;;;;;5.07;2.57;;;;;;;;;;5036487;28;20467;-54
2021/09/28 02:04:47;;;;;;;7.73;3.50;;;;;;;;;;5035998;28;20450;-49
2021/09/28 02:07:14;;;;;;;8.53;3.80;;;;;;;;;;5036177;28;20464;-60
2021/09/28 02:09:43;;;;;;;9.23;2.80;;;;;;;;;;5036107;28;20687;-56
2021/09/28 02:12:10;;;;;;;8.93;2.90;;;;;;;;;;5035942;28;20470;-58
2021/09/28 02:14:44;;;;;;;11.60;3.57;;;;;;;;;;5036116;28;20439;-60
2021/09/28 02:17:11;;;;;;;7.03;2.70;;;;;;;;;;5036244;28;20490;-61
2021/09/28 02:19:38;;;;;;;15.27;5.13;;;;;;;;;;5035658;28;20494;-60
2021/09/28 02:22:41;;;;;;;9.37;3.83;;;;;;;;;;5036160;28;20512;-59
2021/09/28 02:25:13;;;;;;;13.27;3.33;;;;;;;;;;5034147;28;20482;-60
2021/09/28 02:27:40;;;;;;;7.80;3.47;;;;;;;;;;5035646;28;20461;-60
2021/09/28 02:30:08;;;;;;;13.63;3.70;;;;;;;;;;5035684;28;20490;-60
2021/09/28 02:32:35;;;;;;;7.10;3.90;;;;;;;;;;5018338;28;20716;-62
2021/09/28 02:35:15;;;;;;;7.57;2.80;;;;;;;;;;5035830;28;20455;-62
2021/09/28 02:37:42;;;;;;;12.70;3.67;;;;;;;;;;5035180;28;20451;-62
2021/09/28 02:40:12;;;;;;;9.60;3.57;;;;;;;;;;5035235;28;20463;-56
2021/09/28 02:42:45;;;;;;;8.63;3.67;;;;;;;;;;5034905;28;20473;-60
2021/09/28 02:45:13;;;;;;;7.03;3.20;;;;;;;;;;5035826;28;20491;-62
2021/09/28 02:47:41;;;;;;;13.23;3.70;;;;;;;;;;5045724;28;20466;-58
2021/09/28 02:50:27;;;;;;;16.53;4.03;;;;;;;;;;5034484;28;20419;-61
2021/09/28 02:52:54;;;;;;;9.73;3.97;;;;;;;;;;5015264;28;20439;-54
2021/09/28 02:55:23;;;;;;;6.73;3.13;;;;;;;;;;5016828;28;20512;-62
2021/09/28 02:57:57;;;;;;;6.07;2.93;;;;;;;;;;5034881;28;20454;-59
2021/09/28 03:00:24;;;;;;;7.03;4.07;;;;;;;;;;5034593;28;20435;-59
2021/09/28 03:02:52;;;;;;;6.50;3.90;;;;;;;;;;5034270;28;20471;-61
2021/09/28 03:05:38;;;;;;;9.60;3.60;;;;;;;;;;5035521;28;20420;-62
2021/09/28 03:08:05;;;;;;;7.50;3.60;;;;;;;;;;5035113;28;20494;-57
2021/09/28 03:10:34;;;;;;;8.93;3.50;;;;;;;;;;5035595;28;20451;-59
2021/09/28 03:13:15;;;;;;;9.40;4.20;;;;;;;;;;5034084;28;20451;-62
2021/09/28 03:15:42;;;;;;;10.50;3.20;;;;;;;;;;5034122;28;20491;-59
2021/09/28 03:18:10;;;;;;;9.37;3.80;;;;;;;;;;5033916;28;20709;-57
2021/09/28 03:21:04;;;;;;;12.20;4.20;;;;;;;;;;5034216;28;20484;-59
2021/09/28 03:23:32;;;;;;;15.67;5.70;;;;;;;;;;5034404;28;20647;-59
2021/09/28 03:26:00;;;;;;;9.13;3.53;;;;;;;;;;5034856;28;20451;-62
2021/09/28 03:28:41;;;;;;;5.17;2.40;;;;;;;;;;5019206;28;20455;-57
2021/09/28 03:31:09;;;;;;;7.87;3.90;;;;;;;;;;5014964;28;20511;-62
2021/09/28 03:33:36;;;;;;;15.90;6.63;;;;;;;;;;5015184;28;20484;-60
2021/09/28 03:36:15;;;;;;;8.93;3.80;;;;;;;;;;5014696;28;20534;-62
2021/09/28 03:38:42;;;;;;;12.23;4.00;;;;;;;;;;5039122;28;20477;-58
2021/09/28 03:41:11;;;;;;;11.77;4.93;;;;;;;;;;5054831;28;20446;-62
2021/09/28 03:43:39;;;;;;;7.40;2.70;;;;;;;;;;5050545;28;20461;-55
2021/09/28 03:46:06;;;;;;;6.80;3.30;;;;;;;;;;5054367;28;20418;-57
2021/09/28 03:48:50;;;;;;;5.10;2.70;;;;;;;;;;5051740;28;20455;-60
2021/09/28 03:51:28;;;;;;;7.10;2.60;;;;;;;;;;5053699;28;20453;-56
2021/09/28 03:54:06;;;;;;;6.90;3.30;;;;;;;;;;5055213;28;20458;-62
2021/09/28 03:56:35;;;;;;;9.43;3.07;;;;;;;;;;5054052;28;20482;-59
2021/09/28 03:59:03;;;;;;;13.87;4.53;;;;;;;;;;5054361;28;20454;-56
2021/09/28 04:01:31;;;;;;;9.70;4.83;;;;;;;;;;5038303;28;20489;-62
2021/09/28 04:03:59;;;;;;;6.40;3.10;;;;;;;;;;5038397;28;20489;-59
2021/09/28 04:06:26;;;;;;;7.37;3.10;;;;;;;;;;5038418;28;20489;-59
2021/09/28 04:08:56;;;;;;;7.70;3.23;;;;;;;;;;5042304;28;20476;-58
2021/09/28 04:11:24;;;;;;;9.97;3.27;;;;;;;;;;5057732;28;20466;-61
2021/09/28 04:13:53;;;;;;;7.70;3.30;;;;;;;;;;5057654;28;20464;-59
2021/09/28 04:16:20;;;;;;;8.50;3.07;;;;;;;;;;5057501;28;20541;-52
2021/09/28 04:18:49;;;;;;;6.30;3.57;;;;;;;;;;5057881;28;20463;-62
2021/09/28 04:21:17;;;;;;;13.00;4.53;;;;;;;;;;5057530;28;20457;-57
2021/09/28 04:23:45;;;;;;;11.93;3.93;;;;;;;;;;5040726;28;20458;-60
2021/09/28 04:26:13;;;;;;;7.57;3.27;;;;;;;;;;5047967;28;20447;-59
2021/09/28 04:28:47;;;;;;;7.40;2.93;;;;;;;;;;5037266;28;20529;-59
2021/09/28 04:31:16;;;;;;;12.83;4.30;;;;;;;;;;5054352;28;20482;-62
2021/09/28 04:33:43;;;;;;;12.93;4.53;;;;;;;;;;5056836;28;20454;-59
2021/09/28 04:36:16;;;;;;;7.90;3.50;;;;;;;;;;5043306;28;20482;-63
2021/09/28 04:38:44;;;;;;;9.23;3.60;;;;;;;;;;5036740;28;20505;-57
2021/09/28 04:41:11;;;;;;;16.90;3.37;;;;;;;;;;5037333;28;20485;-63
2021/09/28 04:43:39;;;;;;;14.63;4.27;;;;;;;;;;5049514;28;20568;-61
2021/09/28 04:46:06;;;;;;;4.53;2.53;;;;;;;;;;5061438;28;20543;-57
2021/09/28 04:48:35;;;;;;;4.70;2.43;;;;;;;;;;5057274;28;20493;-57
2021/09/28 04:51:05;;;;;;;7.20;3.03;;;;;;;;;;5060112;28;20451;-60
2021/09/28 04:53:40;;;;;;;9.50;4.10;;;;;;;;;;5080409;28;20455;-59
2021/09/28 04:56:22;;;;;;;10.97;3.60;;;;;;;;;;5096478;28;20458;-62
2021/09/28 04:59:07;;;;;;;7.53;3.40;;;;;;;;;;5089659;28;20456;-60
2021/09/28 05:01:44;;;;;;;15.03;4.80;;;;;;;;;;5039185;28;20470;-59
2021/09/28 05:04:22;;;;;;;15.77;3.93;;;;;;;;;;5027648;28;20489;-60
2021/09/28 05:06:49;;;;;;;6.53;2.77;;;;;;;;;;5035480;28;20462;-61
2021/09/28 05:09:17;;;;;;;6.97;2.73;;;;;;;;;;5036675;28;20547;-59
2021/09/28 05:11:48;;;;;;;8.87;3.80;;;;;;;;;;5035206;28;20442;-60
2021/09/28 05:14:21;;;;;;;13.07;3.70;;;;;;;;;;5035295;28;20439;-61
2021/09/28 05:16:57;;;;;;;9.10;2.67;;;;;;;;;;5033016;28;20491;-62
2021/09/28 05:19:29;;;;;;;8.60;3.53;;;;;;;;;;5023863;28;20455;-57
2021/09/28 05:22:09;;;;;;;6.50;3.17;;;;;;;;;;5032275;28;20474;-59
2021/09/28 05:24:36;;;;;;;11.50;3.97;;;;;;;;;;5036350;28;20458;-58
2021/09/28 05:27:07;;;;;;;12.13;3.90;;;;;;;;;;5035995;28;20546;-60
2021/09/28 05:29:37;;;;;;;11.23;5.60;;;;;;;;;;5043765;28;20510;-56
2021/09/28 05:32:09;;;;;;;9.43;3.50;;;;;;;;;;5036727;28;20497;-59
2021/09/28 05:34:50;;;;;;;15.00;3.03;;;;;;;;;;5047775;28;20458;-58
2021/09/28 05:37:21;;;;;;;7.10;4.20;;;;;;;;;;5055478;28;20462;-58
2021/09/28 05:39:52;;;;;;;11.97;3.70;;;;;;;;;;5050848;28;20517;-61
2021/09/28 05:47:34;;;;;;;8.60;3.60;;;;;;;;;;5056757;28;20477;-62
2021/09/28 05:50:20;;;;;;;7.53;2.50;;;;;;;;;;5072679;28;20223;-62
2021/09/28 05:52:57;;;;;;;10.60;3.30;;;;;;;;;;5062194;28;20457;-62
2021/09/28 05:55:26;;;;;;;4.80;2.90;;;;;;;;;;5049633;28;20501;-60
2021/09/28 05:57:54;;;;;;;7.43;2.40;;;;;;;;;;5053123;28;20501;-60
2021/09/28 06:00:22;;;;;;;5.93;2.80;;;;;;;;;;5053999;28;20465;-61
2021/09/28 06:02:53;;;;;;;7.43;1.97;;;;;;;;;;5048282;28;20816;-60
2021/09/28 06:05:26;;;;;;;9.57;3.93;;;;;;;;;;5052032;28;20469;-60
2021/09/28 06:07:57;;;;;;;7.50;3.50;;;;;;;;;;5057983;28;20904;-61
2021/09/28 06:10:25;;;;;;;8.27;2.40;;;;;;;;;;5072349;28;20453;-60
2021/09/28 06:13:01;;;;;;;7.30;3.03;;;;;;;;;;5062545;28;20446;-59
2021/09/28 06:15:29;;;;;;;13.93;3.70;;;;;;;;;;5059352;28;20476;-58
2021/09/28 06:17:57;;;;;;;10.80;2.87;;;;;;;;;;5062040;28;20485;-63
2021/09/28 06:20:25;;;;;;;12.03;2.97;;;;;;;;;;5073842;28;20489;-63
2021/09/28 06:22:53;;;;;;;10.17;3.20;;;;;;;;;;5068438;28;20472;-57
2021/09/28 06:25:20;;;;;;;8.13;2.80;;;;;;;;;;5053412;28;20438;-61
2021/09/28 06:27:57;;;;;;;5.50;3.07;;;;;;;;;;5053249;28;20442;-58
2021/09/28 06:30:25;;;;;;;13.37;3.93;;;;;;;;;;5052758;28;20442;-59
2021/09/28 06:32:52;;;;;;;15.33;3.20;;;;;;;;;;5052181;28;20562;-58
2021/09/28 06:35:21;;;;;;;17.43;3.03;;;;;;;;;;5053625;28;20736;-60
2021/09/28 06:37:49;;;;;;;12.77;2.33;;;;;;;;;;5049904;28;20502;-57
2021/09/28 06:40:17;;;;;;;7.27;2.60;;;;;;;;;;5052486;28;20564;-59
2021/09/28 06:42:47;;;;;;;10.30;2.90;;;;;;;;;;5047698;28;20474;-59
2021/09/28 06:45:14;;;;;;;6.07;3.10;;;;;;;;;;5052266;28;20472;-57
2021/09/28 06:47:41;;;;;;;6.30;2.87;;;;;;;;;;5049398;28;20915;-60
2021/09/28 06:50:10;;;;;;;6.90;2.67;;;;;;;;;;5051993;28;20500;-62
2021/09/28 06:52:38;;;;;;;7.50;2.23;;;;;;;;;;5052104;28;20454;-62
2021/09/28 06:55:11;;;;;;;7.80;2.90;;;;;;;;;;5052073;28;20462;-58
2021/09/28 06:57:38;;;;;;;6.60;3.00;;;;;;;;;;5052344;28;20519;-59
2021/09/28 07:00:06;;;;;;;6.83;2.67;;;;;;;;;;5033839;28;20453;-57
2021/09/28 07:02:34;;;;;;;8.33;3.23;;;;;;;;;;5042511;28;20480;-60
2021/09/28 07:05:02;;;;;;;8.53;3.10;;;;;;;;;;5049875;28;20488;-56
2021/09/28 07:07:29;;;;;;;7.80;3.07;;;;;;;;;;5050167;28;20453;-57
2021/09/28 07:09:57;;;;;;;7.33;3.77;;;;;;;;;;5049957;28;20445;-61
2021/09/28 07:12:25;;;;;;;10.00;2.70;;;;;;;;;;5051692;28;20445;-59
2021/09/28 07:15:13;;;;;;;12.80;3.23;;;;;;;;;;5049771;28;20523;-59
2021/09/28 07:17:40;;;;;;;7.33;2.97;;;;;;;;;;5050754;28;20556;-59
2021/09/28 07:20:08;;;;;;;6.63;3.20;;;;;;;;;;5050891;28;20457;-59
2021/09/28 07:22:51;;;;;;;7.33;2.67;;;;;;;;;;5050807;28;20488;-58
2021/09/28 07:25:19;;;;;;;8.13;2.63;;;;;;;;;;5050673;28;20470;-61
2021/09/28 07:27:50;;;;;;;10.37;2.97;;;;;;;;;;5051036;28;20512;-58
2021/09/28 07:30:21;;;;;;;5.57;2.77;;;;;;;;;;5051810;28;20464;-59
2021/09/28 07:32:57;;;;;;;6.03;2.30;;;;;;;;;;5046324;28;20496;-63
2021/09/28 07:35:25;;;;;;;8.90;2.60;;;;;;;;;;5070864;28;20445;-60
2021/09/28 07:37:58;;;;;;;6.63;2.93;;;;;;;;;;5073968;28;20476;-62
2021/09/28 07:40:35;;;;;;;7.50;2.60;;;;;;;;;;5075069;28;20488;-61
2021/09/28 07:43:22;;;;;;;8.30;2.20;;;;;;;;;;5075197;28;20534;-62
2021/09/28 07:45:49;;;;;;;7.07;2.53;;;;;;;;;;5075057;28;20475;-62
2021/09/28 07:48:18;;;;;;;6.80;2.20;;;;;;;;;;5074594;28;20449;-59
2021/09/28 07:50:47;;;;;;;5.53;2.00;;;;;;;;;;5051655;28;20468;-60
2021/09/28 07:53:16;;;;;;;6.80;2.13;;;;;;;;;;5072151;28;20463;-55
2021/09/28 07:56:02;;;;;;;5.03;1.80;;;;;;;;;;5073579;28;20441;-61
2021/09/28 07:58:32;;;;;;;27.37;3.27;;;;;;;;;;5074113;28;20485;-58
2021/09/28 08:01:02;;;;;;;9.50;2.67;;;;;;;;;;5070124;28;20460;-60
2021/09/28 08:03:32;;;;;;;5.23;1.90;;;;;;;;;;5073807;28;20658;-60
2021/09/28 08:05:59;;;;;;;10.57;2.97;;;;;;;;;;5073592;28;20465;-61
2021/09/28 08:08:27;;;;;;;11.60;3.53;;;;;;;;;;5067909;28;20489;-60
2021/09/28 08:11:12;;;;;;;6.20;1.90;;;;;;;;;;5064995;28;20488;-61
2021/09/28 08:13:41;;;;;;;11.57;2.13;;;;;;;;;;5058103;28;20461;-60
2021/09/28 08:16:09;;;;;;;7.70;2.50;;;;;;;;;;5063155;28;20436;-61
2021/09/28 08:18:38;;;;;;;6.70;2.87;;;;;;;;;;5059656;28;20489;-61
2021/09/28 08:21:07;;;;;;;7.07;3.10;;;;;;;;;;5058937;28;20448;-60
2021/09/28 08:23:46;;;;;;;8.27;2.33;;;;;;;;;;5053148;28;20465;-57
2021/09/28 08:29:11;;;;;;;8.87;2.80;;;;;;;;;;5061324;28;20424;-58
2021/09/28 08:31:47;;;;;;;8.03;2.70;;;;;;;;;;5073620;28;20915;-59
2021/09/28 08:34:17;;;;;;;12.43;2.37;;;;;;;;;;5069943;28;20496;-51
2021/09/28 08:36:48;;;;;;;8.50;2.93;;;;;;;;;;5054140;28;20488;-57
2021/09/28 08:39:16;;;;;;;14.93;4.20;;;;;;;;;;5051251;28;20513;-61
2021/09/28 08:41:51;;;;;;;8.77;2.80;;;;;;;;;;5066077;28;20480;-60
2021/09/28 08:44:20;;;;;;;5.70;2.57;;;;;;;;;;5065918;28;20452;-65
2021/09/28 08:46:48;;;;;;;6.23;3.30;;;;;;;;;;5071123;28;20433;-56
2021/09/28 08:49:20;;;;;;;11.60;3.23;;;;;;;;;;5069875;28;20512;-56
2021/09/28 08:51:48;;;;;;;8.67;2.37;;;;;;;;;;5051786;28;20580;-59
2021/09/28 08:54:16;;;;;;;7.77;3.30;;;;;;;;;;5052191;28;20493;-59
2021/09/28 08:56:44;;;;;;;11.37;3.10;;;;;;;;;;5050407;28;20457;-58
2021/09/28 08:59:14;;;;;;;8.40;2.80;;;;;;;;;;5052009;28;20489;-58
2021/09/28 09:02:00;;;;;;;6.77;2.83;;;;;;;;;;5050061;28;20457;-61
2021/09/28 09:04:29;;;;;;;6.63;2.70;;;;;;;;;;5059541;28;20504;-60
2021/09/28 09:07:00;;;;;;;8.40;2.80;;;;;;;;;;5065002;28;20457;-60
2021/09/28 09:09:28;;;;;;;8.80;2.73;;;;;;;;;;5065866;28;20469;-61
2021/09/28 09:11:59;;;;;;;7.60;2.87;;;;;;;;;;5066038;28;20475;-58
2021/09/28 09:14:26;;;;;;;6.90;2.03;;;;;;;;;;5049842;28;20452;-57
2021/09/28 09:17:00;;;;;;;10.53;2.10;;;;;;;;;;5061342;28;20454;-61
2021/09/28 09:19:35;;;;;;;9.00;4.20;;;;;;;;;;5068365;28;20584;-62
2021/09/28 09:22:05;;;;;;;5.20;2.47;;;;;;;;;;5072226;28;20499;-61
2021/09/28 09:24:46;;;;;;;9.43;2.87;;;;;;;;;;5067189;28;20504;-62
2021/09/28 09:27:14;;;;;;;6.20;2.17;;;;;;;;;;5054837;28;20461;-59
2021/09/28 09:29:43;;;;;;;7.37;2.50;;;;;;;;;;5071110;28;20496;-60
2021/09/28 09:32:11;;;;;;;12.47;2.60;;;;;;;;;;5062108;28;20458;-60
2021/09/28 09:35:05;;;;;;;4.50;1.77;;;;;;;;;;5067477;28;20600;-58
2021/09/28 09:37:39;;;;;;;8.70;3.70;;;;;;;;;;5073896;28;20742;-58
2021/09/28 09:40:11;;;;;;;31.40;6.30;;;;;;;;;;5052193;28;20520;-59
2021/09/28 09:42:54;;;;;;;11.43;3.50;;;;;;;;;;5061505;28;20469;-58
2021/09/28 09:45:23;;;;;;;5.97;2.37;;;;;;;;;;5053143;28;20477;-57
2021/09/28 09:47:50;;;;;;;7.87;2.33;;;;;;;;;;5058760;28;20462;-60
2021/09/28 09:50:23;;;;;;;10.40;3.30;;;;;;;;;;5072749;28;20455;-59
2021/09/28 09:53:09;;;;;;;10.23;2.00;;;;;;;;;;5070103;28;20472;-62
2021/09/28 09:55:43;;;;;;;6.20;2.50;;;;;;;;;;5064367;28;20443;-56
2021/09/28 09:58:11;;;;;;;8.20;2.30;;;;;;;;;;5056268;28;20477;-61
2021/09/28 10:00:40;;;;;;;8.80;2.63;;;;;;;;;;5070184;28;20438;-60
2021/09/28 10:03:27;;;;;;;14.53;3.20;;;;;;;;;;5058667;28;20468;-60
2021/09/28 10:05:58;;;;;;;10.03;3.30;;;;;;;;;;5060204;28;20496;-61
2021/09/28 10:08:27;;;;;;;11.90;3.70;;;;;;;;;;5095187;28;20901;-59
2021/09/28 10:10:58;;;;;;;13.40;3.83;;;;;;;;;;5088551;28;20502;-56
2021/09/28 10:13:45;;;;;;;9.13;2.17;;;;;;;;;;5088468;28;20464;-61
2021/09/28 10:16:37;;;;;;;6.87;1.90;;;;;;;;;;5085741;28;20656;-62
2021/09/28 10:19:07;;;;;;;7.50;3.67;;;;;;;;;;5075728;28;20480;-60
2021/09/28 10:21:38;;;;;;;4.23;1.53;;;;;;;;;;5087269;28;20464;-61
2021/09/28 10:24:22;;;;;;;5.97;2.10;;;;;;;;;;5086808;28;20455;-59
2021/09/28 10:27:11;;;;;;;5.70;2.63;;;;;;;;;;5074364;28;20483;-62
2021/09/28 10:29:49;;;;;;;7.73;2.43;;;;;;;;;;5067801;28;20475;-58
2021/09/28 10:32:34;;;;;;;9.83;2.73;;;;;;;;;;5083623;28;20455;-59
2021/09/28 10:35:14;;;;;;;11.63;2.93;;;;;;;;;;5072733;28;20469;-60
2021/09/28 10:37:58;;;;;;;12.43;2.77;;;;;;;;;;5087774;28;20432;-59
2021/09/28 10:43:34;;;;;;;9.00;2.37;;;;;;;;;;5075229;28;20722;-61
2021/09/28 10:46:07;;;;;;;6.40;2.03;;;;;;;;;;5068936;28;20479;-60
2021/09/28 10:48:39;;;;;;;7.13;2.40;;;;;;;;;;5068049;28;20486;-58
2021/09/28 10:51:16;;;;;;;9.73;3.37;;;;;;;;;;5063356;28;20457;-60
2021/09/28 10:53:45;;;;;;;11.80;2.70;;;;;;;;;;5066498;28;20457;-58
2021/09/28 10:56:17;;;;;;;4.73;2.40;;;;;;;;;;5060445;28;20496;-60
2021/09/28 10:59:01;;;;;;;14.70;3.20;;;;;;;;;;5040372;28;20568;-59
2021/09/28 11:01:30;;;;;;;12.80;5.10;;;;;;;;;;5069695;28;20860;-62
2021/09/28 11:04:25;;;;;;;11.00;4.47;;;;;;;;;;5068170;28;20522;-59
2021/09/28 11:06:53;;;;;;;9.23;2.97;;;;;;;;;;5068919;28;20465;-60
2021/09/28 11:09:22;;;;;;;5.50;3.03;;;;;;;;;;5048652;28;20454;-60
2021/09/28 11:11:56;;;;;;;11.07;3.03;;;;;;;;;;5050668;28;20473;-61
2021/09/28 11:14:26;;;;;;;9.90;3.00;;;;;;;;;;5047687;28;20454;-61
2021/09/28 11:17:03;;;;;;;13.60;3.23;;;;;;;;;;5044653;28;20468;-58
2021/09/28 11:19:34;;;;;;;8.37;2.90;;;;;;;;;;5065040;28;20821;-57
2021/09/28 11:22:04;;;;;;;7.80;3.60;;;;;;;;;;5064134;28;21037;-60
2021/09/28 11:24:38;;;;;;;13.20;3.47;;;;;;;;;;5066366;28;20452;-56
2021/09/28 11:27:18;;;;;;;8.60;4.43;;;;;;;;;;5063886;28;20506;-61
2021/09/28 11:29:52;;;;;;;9.93;2.77;;;;;;;;;;5065794;28;20461;-60
2021/09/28 11:32:21;;;;;;;7.23;2.17;;;;;;;;;;5062754;28;20519;-63
2021/09/28 11:34:51;;;;;;;14.93;3.97;;;;;;;;;;5060325;28;20465;-59
2021/09/28 11:37:37;;;;;;;11.77;4.23;;;;;;;;;;5061948;28;20462;-58
2021/09/28 11:40:06;;;;;;;12.53;3.57;;;;;;;;;;5052707;28;20499;-60
2021/09/28 11:42:34;;;;;;;5.57;2.70;;;;;;;;;;5066727;28;20568;-55
2021/09/28 11:45:02;;;;;;;10.63;3.50;;;;;;;;;;5061835;28;20465;-61
2021/09/28 11:47:45;;;;;;;7.10;3.07;;;;;;;;;;5049708;28;20538;-61
2021/09/28 11:50:13;;;;;;;7.50;3.70;;;;;;;;;;5063112;28;20461;-58
2021/09/28 11:52:47;;;;;;;5.07;2.10;;;;;;;;;;5068407;28;20500;-60
2021/09/28 11:55:21;;;;;;;8.00;2.07;;;;;;;;;;5069462;28;20696;-59
2021/09/28 11:57:51;;;;;;;8.33;2.43;;;;;;;;;;5068899;28;20514;-59
2021/09/28 12:00:23;;;;;;;7.37;2.00;;;;;;;;;;5067945;28;20437;-60
2021/09/28 12:02:53;;;;;;;5.93;1.63;;;;;;;;;;5067869;28;20503;-61
2021/09/28 12:08:10;;;;;;;8.00;3.00;;;;;;;;;;5069144;28;20433;-61
2021/09/28 12:11:02;;;;;;;19.03;2.60;;;;;;;;;;5063948;28;20449;-60
2021/09/28 12:13:46;;;;;;;5.47;2.60;;;;;;;;;;5060161;28;20464;-60
2021/09/28 12:16:24;;;;;;;6.83;1.93;;;;;;;;;;5066554;28;20495;-59
2021/09/28 12:19:10;;;;;;;4.20;1.70;;;;;;;;;;5069368;28;20488;-59
2021/09/28 12:22:00;;;;;;;10.40;4.17;;;;;;;;;;5071334;28;20457;-60
2021/09/28 12:24:32;;;;;;;6.63;2.63;;;;;;;;;;5072750;28;20464;-60
2021/09/28 12:27:20;;;;;;;9.43;2.47;;;;;;;;;;5073214;28;20481;-58
2021/09/28 12:29:52;;;;;;;6.63;2.10;;;;;;;;;;5072281;28;20451;-60
2021/09/28 12:32:42;;;;;;;9.47;2.87;;;;;;;;;;5072674;28;20463;-61
2021/09/28 12:35:13;;;;;;;8.20;2.43;;;;;;;;;;5071084;28;20487;-62
2021/09/28 12:37:49;;;;;;;9.10;2.30;;;;;;;;;;5058222;28;20517;-55
2021/09/28 12:40:19;;;;;;;9.77;1.80;;;;;;;;;;5064662;28;20485;-58
2021/09/28 12:42:47;;;;;;;10.03;1.63;;;;;;;;;;5064844;28;20449;-60
2021/09/28 12:45:16;;;;;;;7.23;2.20;;;;;;;;;;5065204;28;20480;-59
2021/09/28 12:47:46;;;;;;;21.10;14.13;;;;;;;;;;5062727;28;20460;-61
2021/09/28 12:50:18;;;;;;;9.50;2.87;;;;;;;;;;5067716;28;20483;-60
2021/09/28 12:52:47;;;;;;;10.13;2.33;;;;;;;;;;5062927;28;20450;-62
2021/09/28 12:55:15;;;;;;;8.10;3.10;;;;;;;;;;5065933;28;20458;-62
2021/09/28 12:57:51;;;;;;;8.30;2.47;;;;;;;;;;5070173;28;20469;-56
2021/09/28 13:00:21;;;;;;;12.10;5.23;;;;;;;;;;5054181;28;20492;-58
2021/09/28 13:02:50;;;;;;;6.40;2.97;;;;;;;;;;5051795;28;20510;-58
2021/09/28 13:05:21;;;;;;;7.03;2.57;;;;;;;;;;5067209;28;20503;-61
2021/09/28 13:08:05;;;;;;;7.07;2.53;;;;;;;;;;5064436;28;20461;-60
2021/09/28 13:10:33;;;;;;;7.73;3.73;;;;;;;;;;5057231;28;20748;-61
2021/09/28 13:13:01;;;;;;;7.00;3.00;;;;;;;;;;5068190;28;20485;-58
2021/09/28 13:15:41;;;;;;;9.70;2.20;;;;;;;;;;5070140;28;20463;-58
2021/09/28 13:18:14;;;;;;;6.90;2.40;;;;;;;;;;5069981;28;20453;-56
2021/09/28 13:20:43;;;;;;;7.80;2.03;;;;;;;;;;5066409;28;20517;-58
2021/09/28 13:23:16;;;;;;;4.67;1.60;;;;;;;;;;5063396;28;20533;-58
2021/09/28 13:25:44;;;;;;;5.47;2.23;;;;;;;;;;5059012;28;20496;-60
2021/09/28 13:28:15;;;;;;;7.87;2.67;;;;;;;;;;5065065;28;20692;-59
2021/09/28 13:30:53;;;;;;;6.03;2.10;;;;;;;;;;5062122;28;20442;-59
2021/09/28 13:33:29;;;;;;;7.47;3.13;;;;;;;;;;5064924;28;20531;-60
2021/09/28 13:36:03;;;;;;;7.20;2.90;;;;;;;;;;5058400;28;20521;-59
2021/09/28 13:38:32;;;;;;;8.50;4.77;;;;;;;;;;5062946;28;20468;-61
2021/09/28 13:41:23;;;;;;;12.93;6.83;;;;;;;;;;5061556;28;20464;-58
2021/09/28 13:43:54;;;;;;;12.07;3.93;;;;;;;;;;5058902;28;20490;-58
2021/09/28 13:46:26;;;;;;;9.73;3.23;;;;;;;;;;5067278;28;20520;-59
2021/09/28 13:48:54;;;;;;;11.87;3.27;;;;;;;;;;5063263;28;21002;-61
2021/09/28 13:51:21;;;;;;;5.73;2.80;;;;;;;;;;5069879;28;20453;-62
2021/09/28 13:57:11;;;;;;;14.23;4.40;;;;;;;;;;5051926;28;20454;-62
2021/09/28 14:00:02;;;;;;;7.20;2.47;;;;;;;;;;5053604;28;20722;-59
2021/09/28 14:02:34;;;;;;;11.60;2.67;;;;;;;;;;5071807;28;20457;-62
2021/09/28 14:05:10;;;;;;;7.73;2.10;;;;;;;;;;5066670;28;20462;-61
2021/09/28 14:07:42;;;;;;;5.97;1.60;;;;;;;;;;5072515;28;20457;-62
2021/09/28 14:10:11;;;;;;;15.73;2.70;;;;;;;;;;5070844;28;20453;-60
2021/09/28 14:12:52;;;;;;;10.03;3.00;;;;;;;;;;5069683;28;20495;-62
2021/09/28 14:15:20;;;;;;;8.50;3.23;;;;;;;;;;5062072;28;20449;-58
2021/09/28 14:18:00;;;;;;;8.40;4.50;;;;;;;;;;5073377;28;20422;-59
2021/09/28 14:20:32;;;;;;;8.50;2.53;;;;;;;;;;5070716;28;20591;-63
2021/09/28 14:23:09;;;;;;;13.33;2.20;;;;;;;;;;5063639;28;20753;-56
2021/09/28 14:25:43;;;;;;;6.37;2.73;;;;;;;;;;5061982;28;20458;-61
2021/09/28 14:28:14;;;;;;;6.00;3.17;;;;;;;;;;5068504;28;20492;-62
2021/09/28 14:30:42;;;;;;;8.20;3.20;;;;;;;;;;5071664;28;20456;-62
2021/09/28 14:33:16;;;;;;;5.20;2.17;;;;;;;;;;5070437;28;20492;-60
2021/09/28 14:35:44;;;;;;;9.30;2.47;;;;;;;;;;5069011;28;20583;-61
2021/09/28 14:38:24;;;;;;;4.63;2.17;;;;;;;;;;5069907;28;20469;-63
2021/09/28 14:40:52;;;;;;;5.93;3.13;;;;;;;;;;5071549;28;20477;-59
2021/09/28 14:43:24;;;;;;;5.20;2.80;;;;;;;;;;5071782;28;20457;-60
2021/09/28 14:45:51;;;;;;;7.80;2.67;;;;;;;;;;5071953;28;20465;-60
2021/09/28 14:48:19;;;;;;;12.43;3.00;;;;;;;;;;5069719;28;20493;-63
2021/09/28 14:50:48;;;;;;;5.50;3.20;;;;;;;;;;5073041;28;20508;-60
2021/09/28 14:53:28;;;;;;;7.40;2.30;;;;;;;;;;5053225;28;20460;-62
2021/09/28 14:56:24;;;;;;;11.53;2.90;;;;;;;;;;5057863;28;20721;-61
2021/09/28 14:59:02;;;;;;;9.50;2.40;;;;;;;;;;5059407;28;20497;-61
2021/09/28 15:01:31;;;;;;;6.47;2.50;;;;;;;;;;5050566;28;20449;-59
2021/09/28 15:06:52;;;;;;;12.37;4.30;;;;;;;;;;5066513;28;20438;-61
2021/09/28 15:09:20;;;;;;;8.67;2.73;;;;;;;;;;5068727;28;20452;-63
2021/09/28 15:11:49;;;;;;;20.17;4.63;;;;;;;;;;5070017;28;20483;-61
2021/09/28 15:14:19;;;;;;;9.20;3.80;;;;;;;;;;5070418;28;20473;-62
2021/09/28 15:16:46;;;;;;;4.00;2.17;;;;;;;;;;5072134;28;20453;-62
2021/09/28 15:19:29;;;;;;;7.90;2.43;;;;;;;;;;5066064;28;20502;-61
2021/09/28 15:21:57;;;;;;;9.90;1.93;;;;;;;;;;5049759;28;20500;-61
2021/09/28 15:24:50;;;;;;;13.63;3.50;;;;;;;;;;5060476;28;20461;-59
2021/09/28 15:27:23;;;;;;;11.30;3.13;;;;;;;;;;5057713;28;20539;-63
2021/09/28 15:29:56;;;;;;;8.30;1.97;;;;;;;;;;5054239;28;20449;-62